createdAt,value
2019-01-09T00:01:07.278Z,97486.59
2019-01-09T00:02:10.470Z,97486.59
2019-01-09T00:03:13.182Z,97490.11
2019-01-09T00:04:16.402Z,97490.11
2019-01-09T00:05:28.146Z,97486.08
2019-01-09T00:06:24.798Z,97483.73
2019-01-09T00:07:27.591Z,97483.73
2019-01-09T00:08:30.943Z,97478.44
2019-01-09T00:09:41.639Z,97476.05
2019-01-09T00:10:44.457Z,97472.54
2019-01-09T00:11:47.674Z,97453.72
2019-01-09T00:12:50.451Z,97477.84
2019-01-09T00:13:53.196Z,97478.14
2019-01-09T00:14:55.913Z,97478.14
2019-01-09T00:15:58.722Z,97476.58
2019-01-09T00:17:01.537Z,97480.08
2019-01-09T00:18:04.716Z,97480.08
2019-01-09T00:19:07.514Z,97474.44
2019-01-09T00:20:10.221Z,97477.42
2019-01-09T00:21:14.322Z,97478.73
2019-01-09T00:22:17.248Z,97490.27
2019-01-09T00:23:22.860Z,97489.45
2019-01-09T00:24:26.161Z,97483.25
2019-01-09T00:25:28.950Z,97483.47
2019-01-09T00:26:31.756Z,97488.06
2019-01-09T00:27:34.505Z,97470.97
2019-01-09T00:28:37.275Z,97478.77
2019-01-09T00:29:40.053Z,97485.23
2019-01-09T00:30:43.103Z,97474.70
2019-01-09T00:31:45.906Z,97474.70
2019-01-09T00:32:48.609Z,97469.36
2019-01-09T00:33:51.408Z,97460.00
2019-01-09T00:34:54.209Z,97465.33
2019-01-09T00:35:56.957Z,97466.67
2019-01-09T00:36:59.837Z,97458.88
2019-01-09T00:38:02.821Z,97458.88
2019-01-09T00:39:06.566Z,97459.91
2019-01-09T00:40:10.140Z,97468.98
2019-01-09T00:41:13.785Z,97470.33
2019-01-09T00:42:18.525Z,97464.66
2019-01-09T00:43:21.841Z,97464.66
2019-01-09T00:44:24.692Z,97443.14
2019-01-09T00:45:27.507Z,97458.75
2019-01-09T00:46:30.264Z,97458.75
2019-01-09T00:47:33.182Z,97455.37
2019-01-09T00:48:36.448Z,97455.37
2019-01-09T00:49:39.226Z,97481.68
2019-01-09T00:50:42.314Z,97460.70
2019-01-09T00:51:45.030Z,97472.76
2019-01-09T00:52:47.839Z,97472.76
2019-01-09T00:53:51.120Z,97473.09
2019-01-09T00:54:54.207Z,97467.72
2019-01-09T00:55:56.937Z,97469.36
2019-01-09T00:56:59.689Z,97470.78
2019-01-09T00:58:02.477Z,97443.13
2019-01-09T00:59:05.380Z,97472.95
2019-01-09T01:00:08.178Z,97453.36
2019-01-09T01:01:11.348Z,97469.22
2019-01-09T01:02:14.149Z,97465.23
2019-01-09T01:03:16.943Z,97472.99
2019-01-09T01:04:19.664Z,97451.83
2019-01-09T01:05:22.537Z,97464.19
2019-01-09T01:06:25.333Z,97468.78
2019-01-09T01:07:28.850Z,97469.86
2019-01-09T01:08:31.597Z,97466.61
2019-01-09T01:09:34.407Z,97470.91
2019-01-09T01:10:37.199Z,97480.02
2019-01-09T01:11:39.912Z,97488.53
2019-01-09T01:12:42.702Z,97483.15
2019-01-09T01:13:45.814Z,97483.15
2019-01-09T01:14:48.618Z,97478.30
2019-01-09T01:15:51.414Z,97472.88
2019-01-09T01:16:54.197Z,97471.58
2019-01-09T01:17:56.950Z,97484.27
2019-01-09T01:18:59.767Z,97488.00
2019-01-09T01:20:02.794Z,97488.00
2019-01-09T01:21:05.513Z,97479.49
2019-01-09T01:22:08.259Z,97479.49
2019-01-09T01:23:11.052Z,97489.27
2019-01-09T01:24:16.248Z,97491.95
2019-01-09T01:25:19.009Z,97491.95
2019-01-09T01:26:22.088Z,97485.50
2019-01-09T01:27:24.873Z,97497.00
2019-01-09T01:28:27.570Z,97499.95
2019-01-09T01:29:30.371Z,97494.83
2019-01-09T01:30:33.185Z,97509.61
2019-01-09T01:31:36.017Z,97499.13
2019-01-09T01:32:39.328Z,97499.13
2019-01-09T01:33:42.367Z,97500.95
2019-01-09T01:34:45.332Z,97500.95
2019-01-09T01:35:54.688Z,97513.27
2019-01-09T01:36:52.820Z,97498.83
2019-01-09T01:37:55.677Z,97498.83
2019-01-09T01:38:58.981Z,97507.94
2019-01-09T01:40:02.540Z,97507.94
2019-01-09T01:41:05.454Z,97492.22
2019-01-09T01:42:08.300Z,97492.22
2019-01-09T01:43:11.213Z,97499.16
2019-01-09T01:44:14.363Z,97508.57
2019-01-09T01:45:17.552Z,97508.57
2019-01-09T01:46:20.301Z,97503.49
2019-01-09T01:47:23.042Z,97516.41
2019-01-09T01:48:25.777Z,97512.38
2019-01-09T01:49:28.627Z,97514.24
2019-01-09T01:50:31.330Z,97511.55
2019-01-09T01:51:35.103Z,97497.89
2019-01-09T01:52:37.865Z,97512.94
2019-01-09T01:53:40.600Z,97526.14
2019-01-09T01:54:43.469Z,97520.55
2019-01-09T01:55:46.186Z,97523.23
2019-01-09T01:56:48.898Z,97521.33
2019-01-09T01:57:52.161Z,97518.08
2019-01-09T01:58:55.063Z,97510.77
2019-01-09T01:59:57.982Z,97517.86
2019-01-09T02:01:00.947Z,97518.91
2019-01-09T02:02:03.739Z,97504.23
2019-01-09T02:03:06.453Z,97515.98
2019-01-09T02:04:09.721Z,97527.27
2019-01-09T02:05:12.990Z,97522.48
2019-01-09T02:06:15.783Z,97527.82
2019-01-09T02:07:18.653Z,97525.36
2019-01-09T02:08:21.916Z,97515.02
2019-01-09T02:09:24.781Z,97523.27
2019-01-09T02:10:27.928Z,97527.66
2019-01-09T02:11:30.696Z,97520.45
2019-01-09T02:12:33.509Z,97514.33
2019-01-09T02:13:36.674Z,97516.00
2019-01-09T02:14:39.503Z,97514.95
2019-01-09T02:15:42.350Z,97519.86
2019-01-09T02:16:45.580Z,97527.86
2019-01-09T02:17:48.444Z,97517.97
2019-01-09T02:18:51.691Z,97517.97
2019-01-09T02:19:54.438Z,97528.83
2019-01-09T02:20:57.283Z,97538.81
2019-01-09T02:22:00.003Z,97540.39
2019-01-09T02:23:03.287Z,97538.23
2019-01-09T02:24:06.029Z,97551.69
2019-01-09T02:25:08.820Z,97558.08
2019-01-09T02:26:11.570Z,97552.48
2019-01-09T02:27:14.389Z,97550.25
2019-01-09T02:28:17.168Z,97537.18
2019-01-09T02:29:20.252Z,97537.18
2019-01-09T02:30:22.996Z,97547.31
2019-01-09T02:31:25.852Z,97548.16
2019-01-09T02:32:28.575Z,97563.16
2019-01-09T02:33:31.296Z,97563.16
2019-01-09T02:34:34.067Z,97556.94
2019-01-09T02:35:37.278Z,97564.70
2019-01-09T02:36:40.124Z,97564.70
2019-01-09T02:37:42.848Z,97574.42
2019-01-09T02:38:45.696Z,97574.42
2019-01-09T02:39:48.907Z,97554.58
2019-01-09T02:40:52.080Z,97565.00
2019-01-09T02:41:55.439Z,97562.92
2019-01-09T02:42:58.221Z,97569.11
2019-01-09T02:44:01.210Z,97578.33
2019-01-09T02:45:04.080Z,97578.33
2019-01-09T02:46:06.940Z,97576.70
2019-01-09T02:47:09.746Z,97574.27
2019-01-09T02:48:12.911Z,97570.59
2019-01-09T02:49:15.976Z,97570.59
2019-01-09T02:50:18.798Z,97571.41
2019-01-09T02:51:21.690Z,97572.84
2019-01-09T02:52:24.429Z,97574.12
2019-01-09T02:53:27.309Z,97582.17
2019-01-09T02:54:31.647Z,97580.62
2019-01-09T02:55:34.846Z,97582.28
2019-01-09T02:56:37.635Z,97587.73
2019-01-09T02:57:40.369Z,97580.83
2019-01-09T02:58:43.131Z,97580.37
2019-01-09T02:59:46.023Z,97582.48
2019-01-09T03:00:49.656Z,97582.48
2019-01-09T03:01:53.129Z,97575.00
2019-01-09T03:02:56.391Z,97584.24
2019-01-09T03:03:59.182Z,97587.66
2019-01-09T03:05:02.145Z,97580.66
2019-01-09T03:06:05.366Z,97581.45
2019-01-09T03:07:10.498Z,97579.84
2019-01-09T03:08:13.265Z,97579.31
2019-01-09T03:09:15.997Z,97583.30
2019-01-09T03:10:18.777Z,97591.59
2019-01-09T03:11:21.654Z,97587.89
2019-01-09T03:12:24.495Z,97595.63
2019-01-09T03:13:27.769Z,97589.21
2019-01-09T03:14:30.579Z,97590.58
2019-01-09T03:15:33.366Z,97590.58
2019-01-09T03:16:36.091Z,97584.37
2019-01-09T03:17:38.912Z,97587.83
2019-01-09T03:18:42.259Z,97584.06
2019-01-09T03:19:45.773Z,97585.59
2019-01-09T03:20:48.499Z,97574.59
2019-01-09T03:21:51.552Z,97577.02
2019-01-09T03:22:54.374Z,97575.65
2019-01-09T03:23:57.176Z,97576.91
2019-01-09T03:25:00.174Z,97565.89
2019-01-09T03:26:05.043Z,97573.20
2019-01-09T03:27:07.836Z,97567.02
2019-01-09T03:28:10.544Z,97569.39
2019-01-09T03:29:13.424Z,97566.16
2019-01-09T03:30:16.190Z,97566.16
2019-01-09T03:31:19.602Z,97568.08
2019-01-09T03:32:23.001Z,97568.08
2019-01-09T03:33:25.842Z,97558.05
2019-01-09T03:34:28.564Z,97572.34
2019-01-09T03:35:31.715Z,97565.86
2019-01-09T03:36:34.520Z,97571.05
2019-01-09T03:37:37.251Z,97561.65
2019-01-09T03:38:40.395Z,97559.47
2019-01-09T03:39:43.129Z,97554.66
2019-01-09T03:40:46.217Z,97553.37
2019-01-09T03:41:48.936Z,97552.81
2019-01-09T03:42:51.695Z,97548.25
2019-01-09T03:43:54.497Z,97553.13
2019-01-09T03:44:57.582Z,97550.73
2019-01-09T03:46:00.390Z,97558.76
2019-01-09T03:47:03.196Z,97557.13
2019-01-09T03:48:05.986Z,97549.78
2019-01-09T03:49:09.038Z,97549.78
2019-01-09T03:50:12.033Z,97552.41
2019-01-09T03:51:15.330Z,97553.73
2019-01-09T03:52:18.369Z,97541.39
2019-01-09T03:53:21.692Z,97544.59
2019-01-09T03:54:24.388Z,97538.76
2019-01-09T03:55:27.487Z,97544.13
2019-01-09T03:56:30.190Z,97544.13
2019-01-09T03:57:33.234Z,97545.00
2019-01-09T03:58:36.058Z,97549.55
2019-01-09T03:59:38.777Z,97553.80
2019-01-09T04:00:41.513Z,97557.34
2019-01-09T04:01:44.713Z,97553.28
2019-01-09T04:02:47.912Z,97556.23
2019-01-09T04:03:51.839Z,97560.44
2019-01-09T04:04:56.219Z,97558.55
2019-01-09T04:05:59.190Z,97562.86
2019-01-09T04:07:01.901Z,97562.05
2019-01-09T04:08:04.681Z,97564.70
2019-01-09T04:09:07.681Z,97559.41
2019-01-09T04:10:10.776Z,97559.09
2019-01-09T04:11:13.652Z,97566.59
2019-01-09T04:12:16.485Z,97561.73
2019-01-09T04:13:19.336Z,97561.73
2019-01-09T04:14:22.134Z,97571.13
2019-01-09T04:15:25.056Z,97562.02
2019-01-09T04:16:29.795Z,97552.83
2019-01-09T04:17:33.111Z,97558.22
2019-01-09T04:18:35.840Z,97566.28
2019-01-09T04:19:39.038Z,97568.15
2019-01-09T04:20:43.539Z,97560.06
2019-01-09T04:21:46.533Z,97566.45
2019-01-09T04:22:49.680Z,97565.11
2019-01-09T04:23:52.401Z,97562.72
2019-01-09T04:24:55.219Z,97569.75
2019-01-09T04:25:58.346Z,97562.72
2019-01-09T04:27:01.200Z,97570.78
2019-01-09T04:28:05.320Z,97577.75
2019-01-09T04:29:08.678Z,97577.75
2019-01-09T04:30:11.525Z,97575.09
2019-01-09T04:31:14.399Z,97587.94
2019-01-09T04:32:17.195Z,97591.94
2019-01-09T04:33:20.393Z,97591.67
2019-01-09T04:34:24.900Z,97587.09
2019-01-09T04:35:28.148Z,97591.59
2019-01-09T04:36:30.884Z,97600.20
2019-01-09T04:37:33.636Z,97600.96
2019-01-09T04:38:36.540Z,97598.27
2019-01-09T04:39:39.282Z,97583.59
2019-01-09T04:40:42.096Z,97583.59
2019-01-09T04:41:45.202Z,97592.67
2019-01-09T04:42:47.943Z,97592.67
2019-01-09T04:43:51.153Z,97607.23
2019-01-09T04:44:54.011Z,97593.78
2019-01-09T04:45:56.721Z,97590.28
2019-01-09T04:46:59.487Z,97596.73
2019-01-09T04:48:02.639Z,97592.47
2019-01-09T04:49:05.504Z,97590.75
2019-01-09T04:50:11.533Z,97599.91
2019-01-09T04:51:14.382Z,97599.91
2019-01-09T04:52:17.132Z,97589.66
2019-01-09T04:53:19.898Z,97587.83
2019-01-09T04:54:23.175Z,97598.02
2019-01-09T04:55:26.155Z,97590.98
2019-01-09T04:56:29.125Z,97592.03
2019-01-09T04:57:33.800Z,97605.72
2019-01-09T04:58:36.630Z,97603.85
2019-01-09T04:59:42.160Z,97597.81
2019-01-09T05:00:45.168Z,97593.78
2019-01-09T05:01:47.962Z,97595.94
2019-01-09T05:02:50.673Z,97585.45
2019-01-09T05:03:53.722Z,97594.83
2019-01-09T05:04:56.518Z,97591.91
2019-01-09T05:05:59.691Z,97583.33
2019-01-09T05:07:02.911Z,97594.05
2019-01-09T05:08:05.618Z,97594.83
2019-01-09T05:09:08.768Z,97594.28
2019-01-09T05:10:11.659Z,97593.78
2019-01-09T05:11:14.549Z,97594.09
2019-01-09T05:12:17.357Z,97598.95
2019-01-09T05:13:20.916Z,97601.60
2019-01-09T05:14:24.095Z,97595.20
2019-01-09T05:15:26.973Z,97595.67
2019-01-09T05:16:29.907Z,97597.60
2019-01-09T05:17:33.452Z,97574.77
2019-01-09T05:18:36.227Z,97593.95
2019-01-09T05:19:39.506Z,97591.78
2019-01-09T05:20:42.738Z,97597.12
2019-01-09T05:21:45.777Z,97602.52
2019-01-09T05:22:48.623Z,97579.15
2019-01-09T05:23:51.369Z,97579.15
2019-01-09T05:24:54.199Z,97590.17
2019-01-09T05:25:57.352Z,97591.81
2019-01-09T05:27:00.142Z,97591.81
2019-01-09T05:28:02.860Z,97590.50
2019-01-09T05:29:06.048Z,97599.39
2019-01-09T05:30:11.089Z,97595.66
2019-01-09T05:31:13.903Z,97593.79
2019-01-09T05:32:17.139Z,97598.66
2019-01-09T05:33:19.886Z,97591.94
2019-01-09T05:34:22.701Z,97595.39
2019-01-09T05:35:25.518Z,97597.20
2019-01-09T05:36:28.222Z,97598.81
2019-01-09T05:37:31.014Z,97598.81
2019-01-09T05:38:34.308Z,97603.34
2019-01-09T05:39:39.737Z,97609.79
2019-01-09T05:40:41.869Z,97603.87
2019-01-09T05:41:45.132Z,97596.08
2019-01-09T05:42:48.065Z,97596.34
2019-01-09T05:43:50.861Z,97594.66
2019-01-09T05:44:54.037Z,97595.20
2019-01-09T05:45:56.810Z,97595.20
2019-01-09T05:46:59.523Z,97594.66
2019-01-09T05:48:02.330Z,97601.02
2019-01-09T05:49:05.126Z,97605.63
2019-01-09T05:50:07.845Z,97595.67
2019-01-09T05:51:11.243Z,97595.67
2019-01-09T05:52:13.967Z,97602.91
2019-01-09T05:53:17.455Z,97599.47
2019-01-09T05:54:20.222Z,97609.48
2019-01-09T05:55:23.036Z,97607.34
2019-01-09T05:56:25.735Z,97593.39
2019-01-09T05:57:28.887Z,97603.84
2019-01-09T05:58:31.686Z,97601.95
2019-01-09T05:59:34.500Z,97597.36
2019-01-09T06:00:37.869Z,97603.78
2019-01-09T06:01:40.650Z,97606.18
2019-01-09T06:02:43.390Z,97606.55
2019-01-09T06:03:46.184Z,97606.81
2019-01-09T06:04:48.963Z,97612.69
2019-01-09T06:05:51.688Z,97600.86
2019-01-09T06:06:54.532Z,97607.37
2019-01-09T06:07:57.236Z,97610.88
2019-01-09T06:09:00.324Z,97605.45
2019-01-09T06:10:03.541Z,97602.00
2019-01-09T06:11:06.348Z,97603.81
2019-01-09T06:12:09.665Z,97610.73
2019-01-09T06:13:12.375Z,97603.78
2019-01-09T06:14:15.083Z,97603.78
2019-01-09T06:15:18.143Z,97605.71
2019-01-09T06:16:20.943Z,97605.18
2019-01-09T06:17:23.681Z,97610.81
2019-01-09T06:18:26.847Z,97603.55
2019-01-09T06:19:29.708Z,97602.78
2019-01-09T06:20:33.046Z,97606.23
2019-01-09T06:21:36.456Z,97601.71
2019-01-09T06:22:39.178Z,97601.97
2019-01-09T06:23:42.009Z,97600.08
2019-01-09T06:24:44.883Z,97607.81
2019-01-09T06:25:47.609Z,97598.97
2019-01-09T06:26:50.321Z,97604.37
2019-01-09T06:27:53.493Z,97604.12
2019-01-09T06:28:56.291Z,97591.78
2019-01-09T06:29:59.158Z,97591.78
2019-01-09T06:43:46.611Z,97612.05
2019-01-09T06:44:51.194Z,97613.45
2019-01-09T06:45:53.899Z,97615.34
2019-01-09T06:46:56.629Z,97614.81
2019-01-09T06:47:59.349Z,97611.55
2019-01-09T06:49:04.087Z,97610.79
2019-01-09T06:50:07.465Z,97614.03
2019-01-09T06:51:10.258Z,97612.08
2019-01-09T06:52:12.986Z,97620.95
2019-01-09T06:53:15.745Z,97614.77
2019-01-09T06:54:19.422Z,97615.81
2019-01-09T06:55:22.764Z,97620.14
2019-01-09T06:56:25.558Z,97621.72
2019-01-09T06:57:28.349Z,97621.42
2019-01-09T06:58:31.117Z,97621.42
2019-01-09T06:59:34.132Z,97620.38
2019-01-09T07:00:37.146Z,97623.59
2019-01-09T07:01:40.267Z,97626.30
2019-01-09T07:02:43.061Z,97628.69
2019-01-09T07:03:45.867Z,97625.80
2019-01-09T07:04:48.725Z,97632.20
2019-01-09T07:05:51.467Z,97634.33
2019-01-09T07:06:54.228Z,97631.61
2019-01-09T07:07:57.635Z,97631.61
2019-01-09T07:09:01.052Z,97628.64
2019-01-09T07:10:03.798Z,97624.58
2019-01-09T07:11:06.695Z,97621.60
2019-01-09T07:12:09.499Z,97623.50
2019-01-09T07:13:12.316Z,97620.58
2019-01-09T07:14:16.619Z,97619.79
2019-01-09T07:15:19.455Z,97622.77
2019-01-09T07:16:22.232Z,97616.31
2019-01-09T07:17:24.962Z,97615.53
2019-01-09T07:18:27.712Z,97616.64
2019-01-09T07:19:31.090Z,97616.64
2019-01-09T07:20:34.238Z,97627.34
2019-01-09T07:21:45.188Z,97631.92
2019-01-09T07:22:41.799Z,97638.64
2019-01-09T07:23:44.594Z,97634.12
2019-01-09T07:24:47.324Z,97634.12
2019-01-09T07:25:50.583Z,97643.73
2019-01-09T07:26:53.475Z,97640.17
2019-01-09T07:27:56.282Z,97644.17
2019-01-09T07:28:59.502Z,97653.39
2019-01-09T07:30:02.338Z,97657.97
2019-01-09T07:31:05.440Z,97661.39
2019-01-09T07:32:08.757Z,97650.34
2019-01-09T07:33:11.724Z,97657.05
2019-01-09T07:34:14.425Z,97661.05
2019-01-09T07:35:17.130Z,97661.05
2019-01-09T07:36:19.910Z,97660.17
2019-01-09T07:37:23.052Z,97662.39
2019-01-09T07:38:25.914Z,97659.50
2019-01-09T07:39:28.730Z,97658.69
2019-01-09T07:40:31.537Z,97658.69
2019-01-09T07:41:34.352Z,97650.07
2019-01-09T07:42:37.136Z,97657.31
2019-01-09T07:43:40.013Z,97657.02
2019-01-09T07:44:42.811Z,97657.02
2019-01-09T07:45:45.669Z,97659.45
2019-01-09T07:46:49.078Z,97661.84
2019-01-09T07:47:51.906Z,97653.48
2019-01-09T07:48:54.794Z,97651.65
2019-01-09T07:49:57.995Z,97651.91
2019-01-09T07:51:00.741Z,97645.17
2019-01-09T07:52:03.693Z,97644.06
2019-01-09T07:53:06.506Z,97646.75
2019-01-09T07:54:09.387Z,97645.91
2019-01-09T07:55:12.144Z,97644.83
2019-01-09T07:56:16.886Z,97649.96
2019-01-09T07:57:19.893Z,97647.27
2019-01-09T07:58:22.707Z,97647.27
2019-01-09T07:59:27.908Z,97655.66
2019-01-09T08:00:30.994Z,97649.72
2019-01-09T08:01:33.858Z,97658.61
2019-01-09T08:02:37.231Z,97656.13
2019-01-09T08:03:40.176Z,97653.96
2019-01-09T08:04:45.476Z,97655.80
2019-01-09T08:05:48.211Z,97657.64
2019-01-09T08:06:52.054Z,97648.80
2019-01-09T08:07:54.848Z,97648.80
2019-01-09T08:08:58.139Z,97653.55
2019-01-09T08:10:00.965Z,97651.75
2019-01-09T08:11:06.028Z,97651.75
2019-01-09T08:12:08.916Z,97651.98
2019-01-09T08:13:11.769Z,97647.42
2019-01-09T08:14:14.634Z,97645.32
2019-01-09T08:15:18.053Z,97651.77
2019-01-09T08:16:25.510Z,97649.58
2019-01-09T08:17:31.220Z,97648.80
2019-01-09T08:18:34.260Z,97649.03
2019-01-09T08:19:37.556Z,97644.97
2019-01-09T08:20:40.394Z,97652.50
2019-01-09T08:21:43.538Z,97656.83
2019-01-09T08:22:46.301Z,97655.48
2019-01-09T08:23:50.926Z,97655.48
2019-01-09T08:24:57.225Z,97656.53
2019-01-09T08:25:59.949Z,97655.75
2019-01-09T08:27:02.730Z,97668.33
2019-01-09T08:28:08.856Z,97668.33
2019-01-09T08:29:11.676Z,97665.36
2019-01-09T08:30:14.967Z,97657.50
2019-01-09T08:31:17.757Z,97654.78
2019-01-09T08:32:20.782Z,97670.38
2019-01-09T08:33:23.712Z,97669.85
2019-01-09T08:34:26.883Z,97667.72
2019-01-09T08:35:32.037Z,97670.70
2019-01-09T08:36:34.912Z,97672.84
2019-01-09T08:37:37.773Z,97672.84
2019-01-09T08:38:40.747Z,97675.52
2019-01-09T08:39:43.714Z,97675.52
2019-01-09T08:40:46.972Z,97670.67
2019-01-09T08:41:49.909Z,97670.67
2019-01-09T08:42:53.006Z,97683.87
2019-01-09T08:43:56.279Z,97689.78
2019-01-09T08:44:59.135Z,97683.61
2019-01-09T08:46:01.913Z,97680.66
2019-01-09T08:47:05.359Z,97680.66
2019-01-09T08:48:08.127Z,97687.97
2019-01-09T08:49:12.842Z,97680.43
2019-01-09T08:50:17.360Z,97691.00
2019-01-09T08:51:20.483Z,97691.00
2019-01-09T08:52:25.380Z,97687.49
2019-01-09T08:53:29.199Z,97693.53
2019-01-09T08:54:32.096Z,97690.41
2019-01-09T08:55:36.574Z,97690.41
2019-01-09T08:56:39.405Z,97701.59
2019-01-09T08:57:42.587Z,97701.59
2019-01-09T08:58:45.416Z,97706.30
2019-01-09T08:59:48.659Z,97710.33
2019-01-09T09:00:51.561Z,97705.45
2019-01-09T09:01:54.515Z,97703.30
2019-01-09T09:02:57.308Z,97705.11
2019-01-09T09:04:02.539Z,97700.27
2019-01-09T09:05:07.641Z,97706.08
2019-01-09T09:06:10.360Z,97706.61
2019-01-09T09:07:15.653Z,97711.28
2019-01-09T09:08:18.111Z,97717.94
2019-01-09T09:09:21.344Z,97710.64
2019-01-09T09:10:26.164Z,97710.64
2019-01-09T09:11:29.277Z,97715.23
2019-01-09T09:12:35.509Z,97715.23
2019-01-09T09:13:45.911Z,97721.56
2019-01-09T09:14:49.311Z,97721.56
2019-01-09T09:15:52.596Z,97724.20
2019-01-09T09:16:55.362Z,97732.33
2019-01-09T09:18:01.645Z,97726.73
2019-01-09T09:19:04.479Z,97724.34
2019-01-09T09:20:07.270Z,97726.86
2019-01-09T09:21:10.186Z,97726.86
2019-01-09T09:22:12.917Z,97718.91
2019-01-09T09:23:15.665Z,97729.18
2019-01-09T09:24:19.140Z,97713.22
2019-01-09T09:25:22.603Z,97713.22
2019-01-09T09:26:25.444Z,97711.93
2019-01-09T09:27:28.231Z,97709.23
2019-01-09T09:28:31.363Z,97718.16
2019-01-09T09:29:39.502Z,97725.19
2019-01-09T09:30:42.329Z,97729.78
2019-01-09T09:31:45.115Z,97725.92
2019-01-09T09:32:48.057Z,97733.28
2019-01-09T09:33:54.372Z,97726.33
2019-01-09T09:35:00.091Z,97726.33
2019-01-09T09:36:03.654Z,97734.46
2019-01-09T09:37:09.153Z,97715.30
2019-01-09T09:38:20.514Z,97720.09
2019-01-09T09:39:20.415Z,97720.19
2019-01-09T09:40:23.480Z,97719.83
2019-01-09T09:41:29.485Z,97725.89
2019-01-09T09:42:32.724Z,97717.62
2019-01-09T09:43:35.495Z,97726.66
2019-01-09T09:44:39.246Z,97726.66
2019-01-09T09:45:42.233Z,97736.33
2019-01-09T09:46:45.323Z,97750.87
2019-01-09T09:47:48.385Z,97741.42
2019-01-09T09:48:53.498Z,97732.25
2019-01-09T09:49:56.345Z,97739.54
2019-01-09T09:50:59.192Z,97731.43
2019-01-09T09:52:02.038Z,97730.68
2019-01-09T09:53:04.827Z,97729.56
2019-01-09T09:54:10.622Z,97729.56
2019-01-09T09:55:13.736Z,97746.27
2019-01-09T09:56:18.415Z,97746.59
2019-01-09T09:57:23.271Z,97748.27
2019-01-09T09:58:26.190Z,97752.40
2019-01-09T09:59:32.851Z,97752.40
2019-01-09T10:00:36.164Z,97757.16
2019-01-09T10:01:40.609Z,97747.02
2019-01-09T10:02:47.343Z,97744.16
2019-01-09T10:03:50.081Z,97753.84
2019-01-09T10:04:52.831Z,97760.55
2019-01-09T10:05:56.354Z,97766.20
2019-01-09T10:06:59.122Z,97773.71
2019-01-09T10:08:02.752Z,97764.39
2019-01-09T10:09:05.602Z,97726.80
2019-01-09T10:10:08.356Z,97751.84
2019-01-09T10:11:11.316Z,97751.84
2019-01-09T10:12:14.178Z,97764.73
2019-01-09T10:13:18.002Z,97777.59
2019-01-09T10:14:23.567Z,97772.19
2019-01-09T10:15:38.603Z,97775.97
2019-01-09T10:16:48.340Z,97769.98
2019-01-09T10:17:51.572Z,97770.35
2019-01-09T10:18:54.523Z,97772.68
2019-01-09T10:19:57.802Z,97785.21
2019-01-09T10:21:01.202Z,97766.44
2019-01-09T10:22:04.198Z,97775.58
2019-01-09T10:23:09.977Z,97775.41
2019-01-09T10:24:13.858Z,97769.08
2019-01-09T10:25:16.714Z,97769.08
2019-01-09T10:26:21.570Z,97778.20
2019-01-09T10:27:29.823Z,97764.68
2019-01-09T10:28:32.625Z,97764.68
2019-01-09T10:29:37.289Z,97773.47
2019-01-09T10:30:42.756Z,97776.69
2019-01-09T10:31:47.780Z,97778.02
2019-01-09T10:32:50.602Z,97770.65
2019-01-09T10:33:56.685Z,97771.80
2019-01-09T10:34:59.639Z,97771.80
2019-01-09T10:36:02.607Z,97774.13
2019-01-09T10:37:06.602Z,97774.00
2019-01-09T10:38:09.320Z,97765.30
2019-01-09T10:39:12.175Z,97760.60
2019-01-09T10:40:15.453Z,97752.86
2019-01-09T10:41:18.301Z,97760.73
2019-01-09T10:42:21.160Z,97762.41
2019-01-09T10:43:31.174Z,97767.05
2019-01-09T10:44:29.768Z,97758.12
2019-01-09T10:45:32.549Z,97765.24
2019-01-09T10:46:35.400Z,97763.50
2019-01-09T10:47:38.318Z,97767.04
2019-01-09T10:48:42.883Z,97758.21
2019-01-09T10:49:45.629Z,97766.68
2019-01-09T10:50:48.642Z,97767.77
2019-01-09T10:51:51.476Z,97769.60
2019-01-09T10:52:54.814Z,97769.60
2019-01-09T10:54:00.710Z,97771.15
2019-01-09T10:55:05.967Z,97763.50
2019-01-09T10:56:09.239Z,97763.06
2019-01-09T10:57:14.497Z,97773.30
2019-01-09T10:58:17.417Z,97764.31
2019-01-09T10:59:20.151Z,97764.31
2019-01-09T11:00:23.659Z,97755.28
2019-01-09T11:01:28.147Z,97755.28
2019-01-09T11:02:33.130Z,97755.89
2019-01-09T11:03:38.051Z,97755.89
2019-01-09T11:04:41.198Z,97759.54
2019-01-09T11:05:47.158Z,97759.54
2019-01-09T11:06:50.289Z,97753.23
2019-01-09T11:07:53.138Z,97761.61
2019-01-09T11:08:56.160Z,97752.23
2019-01-09T11:10:01.178Z,97752.23
2019-01-09T11:11:04.469Z,97765.30
2019-01-09T11:12:07.365Z,97750.86
2019-01-09T11:13:10.670Z,97761.20
2019-01-09T11:14:13.462Z,97752.31
2019-01-09T11:15:19.298Z,97752.31
2019-01-09T11:16:22.688Z,97759.39
2019-01-09T11:17:25.404Z,97754.50
2019-01-09T11:18:31.183Z,97747.44
2019-01-09T11:19:34.074Z,97749.67
2019-01-09T11:20:37.049Z,97745.11
2019-01-09T11:21:42.783Z,97753.26
2019-01-09T11:22:49.144Z,97744.83
2019-01-09T11:23:51.875Z,97742.17
2019-01-09T11:24:54.598Z,97745.35
2019-01-09T11:25:57.343Z,97734.98
2019-01-09T11:27:00.279Z,97724.73
2019-01-09T11:28:03.155Z,97730.52
2019-01-09T11:29:07.331Z,97731.90
2019-01-09T11:43:19.861Z,97731.63
2019-01-09T11:44:22.694Z,97730.50
2019-01-09T11:45:25.540Z,97731.20
2019-01-09T11:46:28.508Z,97736.53
2019-01-09T11:47:31.846Z,97732.09
2019-01-09T11:48:35.062Z,97728.81
2019-01-09T11:49:37.917Z,97733.91
2019-01-09T11:50:40.811Z,97733.91
2019-01-09T11:51:43.687Z,97737.64
2019-01-09T11:52:46.477Z,97733.56
2019-01-09T11:53:50.292Z,97731.88
2019-01-09T11:54:53.683Z,97736.25
2019-01-09T11:55:56.557Z,97736.25
2019-01-09T11:56:59.677Z,97735.29
2019-01-09T11:58:02.483Z,97732.63
2019-01-09T11:59:05.879Z,97738.01
2019-01-09T12:00:08.696Z,97729.46
2019-01-09T12:01:14.293Z,97726.42
2019-01-09T12:02:21.951Z,97733.28
2019-01-09T12:03:21.828Z,97727.48
2019-01-09T12:04:24.586Z,97718.07
2019-01-09T12:05:29.156Z,97725.23
2019-01-09T12:06:32.572Z,97723.20
2019-01-09T12:07:36.015Z,97729.70
2019-01-09T12:08:39.651Z,97729.70
2019-01-09T12:09:42.548Z,97733.05
2019-01-09T12:10:45.477Z,97721.36
2019-01-09T12:11:48.842Z,97737.01
2019-01-09T12:12:57.269Z,97738.78
2019-01-09T12:14:00.227Z,97729.70
2019-01-09T12:15:03.027Z,97741.79
2019-01-09T12:17:10.687Z,97737.32
2019-01-09T12:18:13.400Z,97743.44
2019-01-09T12:19:16.489Z,97740.45
2019-01-09T12:20:19.204Z,97726.94
2019-01-09T12:21:22.017Z,97741.27
2019-01-09T12:22:24.961Z,97736.03
2019-01-09T12:23:27.710Z,97742.59
2019-01-09T12:24:31.491Z,97745.08
2019-01-09T12:25:34.685Z,97745.98
2019-01-09T12:26:37.745Z,97743.51
2019-01-09T12:26:38.033Z,97735.41
2019-01-09T12:27:41.036Z,97743.51
2019-01-09T12:28:53.470Z,97747.28
2019-01-09T12:29:51.165Z,97749.73
2019-01-09T12:30:54.730Z,97753.69
2019-01-09T12:31:58.214Z,97758.02
2019-01-09T12:33:01.144Z,97738.00
2019-01-09T12:34:03.961Z,97766.46
2019-01-09T12:35:06.759Z,97766.46
2019-01-09T12:36:09.595Z,97744.41
2019-01-09T12:37:12.389Z,97763.21
2019-01-09T12:38:15.735Z,97764.59
2019-01-09T12:39:19.221Z,97762.06
2019-01-09T12:40:21.995Z,97764.34
2019-01-09T12:41:25.101Z,97761.13
2019-01-09T12:42:29.819Z,97766.70
2019-01-09T12:43:32.664Z,97761.53
2019-01-09T12:44:36.030Z,97757.72
2019-01-09T12:45:38.923Z,97758.40
2019-01-09T12:46:42.038Z,97758.25
2019-01-09T12:47:44.834Z,97757.58
2019-01-09T12:48:48.605Z,97761.61
2019-01-09T12:49:54.444Z,97757.45